Langley Air Force Base, VA

5:01 AM EST on January 26, 2015 (GMT -0500)
Nelson Farms | Change Station
CLOSE
Current Station
Personal Weather Station
Location: Hampton, VA
Elevation: 23 ft
Nearby Weather Stations
Active Advisory: Winter Weather Advisory

Elev 23 ft 37.07 °N, 76.42 °W | Updated 8 seconds ago

Scattered Clouds
Scattered Clouds
38.5 °F
Feels Like 38 °F
N
0.0
Wind Variable Wind from West
Gusts 3.2 mph

Today
High -- | Low -- °F
--% Chance of Precip.
Yesterday
High -- | Low -- °F
Precip. -- in
7:12 AM 5:23 PM
Waxing Crescent, 41% visible
Pressure 29.77 in
Visibility 10.0 miles
Clouds Scattered Clouds 11000 ft
Windchill 38 °F
Dew Point 38 °F
Humidity 97%
Rainfall 0.00 in
Snow Depth Not available.
UV 0 out of 12
Pollen 1.60 out of 12
Air Quality Not available.
Flu Activity Not available.
METAR KLFI 260958Z AUTO 13006KT 10SM SCT110 05/03 A2975 RMK AO2 SLP081 T00530025 $

More Conditions Fewer Conditions

Pressure 29.77 in
Visibility 10.0 miles
Clouds Scattered Clouds 11000 ft
Windchill 38 °F
Dew Point 38 °F
Humidity 97%
Rainfall 0.00 in
Snow Depth Not available.
UV 0 out of 12
Pollen 1.60 out of 12
Air Quality Not available.
Flu Activity Not available.
METAR KLFI 260958Z AUTO 13006KT 10SM SCT110 05/03 A2975 RMK AO2 SLP081 T00530025 $

More Conditions Fewer Conditions

10-Day Weather Forecast

Almanac

Astronomy

Jan. 26, 2015 Rise Set
Actual Time
Civil Twilight
Nautical Twilight
Astronomical Twilight
Moon
Length of Visible Light
Length of Day
Tomorrow will be .
, % of the Moon is Illuminated

Today's Extremes

State Highs State Lows

Community

WunderPhotos

Upload Photos

1,790,163 photos uploaded!

WunderBlogs® & News

Nearby

Air Quality

  Air Quality AQ Index Pollutant
Not available.

Snow Depth

Station Depth Elevation

Earthquake Activity

City Distance Mag. Time & Date
Minimum magnitude displayed is 2.5.

Coastal Water Temperatures

Place Temperature

Nearby Weather Stations